Time;durP1;ratioP1;P1;durP2;ratioP2;P2;SDS_P1;SDS_P2;PMS_P1;PMS_P2;Temp;Humidity;BMP_temperature;BMP_pressure;BME280_temperature;BME280_humidity;BME280_pressure;Samples;Min_cycle;Max_cycle;Signal;HPM_P1;HPM_P2
2024/03/08 00:00:58;;;;;;;15.70;6.60;;;0.10;94.40;;;;;;5037378;28;20390;-65
2024/03/08 00:03:24;;;;;;;14.73;5.80;;;0.10;94.60;;;;;;5036798;28;20101;-65
2024/03/08 00:05:49;;;;;;;12.82;6.30;;;0.10;94.60;;;;;;5034934;28;20112;-65
2024/03/08 00:08:15;;;;;;;13.65;5.65;;;0.10;94.70;;;;;;5031177;28;20171;-64
2024/03/08 00:10:40;;;;;;;13.57;5.90;;;0.00;94.70;;;;;;5032219;28;20389;-64
2024/03/08 00:13:06;;;;;;;11.82;6.03;;;0.10;95.00;;;;;;5033675;28;20033;-65
2024/03/08 00:15:32;;;;;;;11.02;6.35;;;0.10;94.90;;;;;;5031757;28;20438;-64
2024/03/08 00:17:57;;;;;;;13.60;6.20;;;0.10;95.00;;;;;;5030251;28;20037;-64
2024/03/08 00:20:23;;;;;;;14.18;5.68;;;0.10;95.00;;;;;;5041388;28;20035;-64
2024/03/08 00:22:49;;;;;;;13.27;5.95;;;0.00;94.90;;;;;;5034171;28;20029;-65
2024/03/08 00:25:14;;;;;;;11.93;5.28;;;0.00;95.20;;;;;;5032890;28;20120;-64
2024/03/08 00:27:41;;;;;;;16.67;7.18;;;0.10;95.10;;;;;;5037978;28;20064;-65
2024/03/08 00:30:07;;;;;;;18.15;5.60;;;0.00;95.00;;;;;;5029352;28;20395;-62
2024/03/08 00:32:33;;;;;;;11.43;5.68;;;0.00;95.20;;;;;;5035994;28;20044;-63
2024/03/08 00:34:59;;;;;;;11.77;6.15;;;-3276.70;95.10;;;;;;5029418;28;20082;-65
2024/03/08 00:37:24;;;;;;;13.43;6.32;;;-3276.70;95.30;;;;;;5033829;28;20085;-64
2024/03/08 00:39:53;;;;;;;15.02;5.10;;;-3276.70;95.50;;;;;;5030949;28;20033;-64
2024/03/08 00:42:20;;;;;;;14.88;6.25;;;-3276.70;95.50;;;;;;5026219;28;20430;-64
2024/03/08 00:44:46;;;;;;;11.77;6.20;;;-3276.70;95.50;;;;;;5036044;28;20124;-64
2024/03/08 00:47:12;;;;;;;11.52;5.57;;;-3276.60;95.50;;;;;;5039256;28;20098;-64
2024/03/08 00:49:38;;;;;;;13.98;5.97;;;-3276.60;95.60;;;;;;5029549;28;20590;-64
2024/03/08 00:52:06;;;;;;;13.32;6.18;;;-3276.60;95.70;;;;;;5032202;28;20037;-64
2024/03/08 00:54:32;;;;;;;12.43;6.25;;;-3276.60;95.70;;;;;;5030828;28;20449;-64
2024/03/08 00:56:58;;;;;;;11.27;5.43;;;-3276.50;95.70;;;;;;5038085;28;20057;-64
2024/03/08 00:59:23;;;;;;;14.57;6.88;;;-3276.50;95.80;;;;;;5038949;28;20419;-65
2024/03/08 01:01:48;;;;;;;14.80;7.35;;;-3276.40;95.80;;;;;;5028841;28;20068;-64
2024/03/08 01:04:14;;;;;;;12.80;6.82;;;-3276.30;95.90;;;;;;5031920;28;20063;-64
2024/03/08 01:06:39;;;;;;;14.85;6.82;;;-3276.30;95.90;;;;;;5030704;28;20125;-65
2024/03/08 01:09:06;;;;;;;12.73;5.88;;;-3276.20;96.00;;;;;;5037027;28;20074;-64
2024/03/08 01:11:33;;;;;;;13.18;6.45;;;-3276.20;96.10;;;;;;5029806;28;20494;-64
2024/03/08 01:13:59;;;;;;;11.35;5.35;;;-3276.10;96.20;;;;;;5030708;28;20025;-64
2024/03/08 01:16:24;;;;;;;11.25;5.35;;;-3276.10;96.30;;;;;;5032329;28;20040;-64
2024/03/08 01:18:50;;;;;;;16.35;6.68;;;-3276.20;96.60;;;;;;5031019;28;20048;-64
2024/03/08 01:21:15;;;;;;;14.60;5.85;;;-3276.20;96.60;;;;;;5040135;28;20041;-64
2024/03/08 01:23:41;;;;;;;14.50;6.20;;;-3276.30;96.80;;;;;;5034695;28;20033;-64
2024/03/08 01:26:06;;;;;;;11.43;6.18;;;-3276.20;96.60;;;;;;5035504;28;20112;-64
2024/03/08 01:28:34;;;;;;;17.55;6.18;;;-3276.20;96.70;;;;;;5028842;28;20045;-64
2024/03/08 01:30:59;;;;;;;13.15;5.88;;;-3276.20;96.70;;;;;;5034113;28;20033;-65
2024/03/08 01:33:26;;;;;;;15.40;6.20;;;-3276.20;96.80;;;;;;5032738;28;20842;-64
2024/03/08 01:35:52;;;;;;;11.00;5.63;;;-3276.20;96.90;;;;;;5028269;28;20144;-64
2024/03/08 01:38:18;;;;;;;11.52;5.70;;;-3276.20;96.80;;;;;;5031412;28;20135;-65
2024/03/08 01:40:44;;;;;;;16.02;7.07;;;-3276.20;96.90;;;;;;5039042;28;20066;-64
2024/03/08 01:43:29;;;;;;;15.63;6.65;;;-3276.20;96.90;;;;;;5027657;28;20462;-64
2024/03/08 01:45:59;;;;;;;13.23;6.15;;;-3276.20;97.00;;;;;;5026683;28;20067;-64
2024/03/08 01:48:26;;;;;;;16.17;6.70;;;-3276.20;97.00;;;;;;5027530;28;20381;-63
2024/03/08 01:50:54;;;;;;;13.32;5.93;;;-3276.10;96.90;;;;;;5036308;28;20064;-65
2024/03/08 01:53:20;;;;;;;13.30;6.50;;;-3276.20;97.20;;;;;;5029988;28;20091;-64
2024/03/08 01:55:48;;;;;;;11.95;6.78;;;-3276.10;97.00;;;;;;5031840;28;20045;-64
2024/03/08 01:58:16;;;;;;;14.98;6.57;;;-3276.20;97.10;;;;;;5026885;28;20330;-63
2024/03/08 02:00:49;;;;;;;15.15;5.68;;;-3276.20;97.40;;;;;;5037238;28;20053;-64
2024/03/08 02:03:17;;;;;;;14.05;6.05;;;-3276.20;97.20;;;;;;5034388;28;20025;-64
2024/03/08 02:05:45;;;;;;;14.27;6.85;;;-3276.10;97.10;;;;;;5028924;28;20135;-64
2024/03/08 02:08:14;;;;;;;12.80;5.80;;;-3276.10;97.20;;;;;;5047039;28;20029;-64
2024/03/08 02:10:41;;;;;;;13.90;6.63;;;-3276.00;97.20;;;;;;5034608;28;20537;-64
2024/03/08 02:13:07;;;;;;;10.65;5.57;;;-3276.00;97.20;;;;;;5037262;28;20116;-64
2024/03/08 02:15:52;;;;;;;13.27;6.25;;;-3276.00;97.30;;;;;;5031337;28;20071;-64
2024/03/08 02:18:18;;;;;;;15.57;5.35;;;-3275.90;97.30;;;;;;5028989;28;20435;-64
2024/03/08 02:20:44;;;;;;;11.57;5.75;;;-3275.90;97.40;;;;;;5033830;28;20040;-64
2024/03/08 02:23:10;;;;;;;15.43;6.70;;;-3275.90;97.50;;;;;;5030835;28;20068;-64
2024/03/08 02:25:36;;;;;;;14.57;6.35;;;-3275.90;97.50;;;;;;5026565;28;20045;-64
2024/03/08 02:28:01;;;;;;;18.25;7.05;;;-3275.90;97.60;;;;;;5034099;28;20025;-64
2024/03/08 02:30:29;;;;;;;14.20;6.32;;;-3275.80;97.50;;;;;;5031689;28;20465;-65
2024/03/08 02:32:55;;;;;;;12.35;6.13;;;-3275.90;97.70;;;;;;5041585;28;20028;-63
2024/03/08 02:35:21;;;;;;;11.63;6.15;;;-3275.80;97.60;;;;;;5040982;28;20059;-64
2024/03/08 02:37:47;;;;;;;21.00;6.10;;;-3275.90;97.80;;;;;;5038461;28;20037;-64
2024/03/08 02:40:13;;;;;;;15.10;6.88;;;-3275.80;97.60;;;;;;5038678;28;20426;-66
2024/03/08 02:42:39;;;;;;;15.63;6.90;;;-3275.80;97.70;;;;;;5034113;28;20510;-65
2024/03/08 02:45:05;;;;;;;14.07;6.25;;;-3275.70;97.80;;;;;;5041294;28;20112;-64
2024/03/08 02:47:31;;;;;;;14.02;6.68;;;-3275.70;97.90;;;;;;5038404;28;20029;-64
2024/03/08 02:49:57;;;;;;;16.25;7.55;;;-3275.70;97.70;;;;;;5042260;28;20333;-64
2024/03/08 02:52:22;;;;;;;17.10;7.80;;;-3275.70;97.90;;;;;;5043565;28;20056;-64
2024/03/08 02:54:48;;;;;;;11.82;5.82;;;-3275.60;97.80;;;;;;5043265;28;20083;-64
2024/03/08 02:57:14;;;;;;;14.32;6.22;;;-3275.60;97.90;;;;;;5044955;28;20090;-64
2024/03/08 02:59:40;;;;;;;14.77;6.35;;;-3275.50;97.90;;;;;;5036743;28;20144;-64
2024/03/08 03:02:06;;;;;;;15.25;6.35;;;-3275.50;98.00;;;;;;5031524;28;20453;-64
2024/03/08 03:04:34;;;;;;;16.85;6.45;;;-3275.60;98.10;;;;;;5038073;28;20085;-64
2024/03/08 03:07:00;;;;;;;14.45;6.20;;;-3275.50;98.10;;;;;;5032704;28;20059;-64
2024/03/08 03:09:27;;;;;;;14.00;6.20;;;-3275.60;98.20;;;;;;5035620;28;20327;-64
2024/03/08 03:11:54;;;;;;;15.02;5.80;;;-3275.50;98.20;;;;;;5039163;28;20041;-64
2024/03/08 03:14:21;;;;;;;12.32;6.15;;;-3275.50;98.10;;;;;;5035320;28;20072;-64
2024/03/08 03:16:46;;;;;;;17.75;7.30;;;-3275.50;98.30;;;;;;5035098;28;20112;-65
2024/03/08 03:19:12;;;;;;;14.80;6.43;;;-3275.50;98.20;;;;;;5042983;28;20108;-65
2024/03/08 03:21:38;;;;;;;15.32;6.13;;;-3275.40;98.20;;;;;;5030800;28;20033;-66
2024/03/08 03:24:04;;;;;;;15.43;6.78;;;-3275.40;98.30;;;;;;5040267;28;20052;-65
2024/03/08 03:26:31;;;;;;;15.65;6.63;;;-3275.50;98.50;;;;;;5045343;28;20044;-65
2024/03/08 03:28:57;;;;;;;20.00;6.97;;;-3275.50;98.50;;;;;;5035575;28;20182;-65
2024/03/08 03:31:23;;;;;;;13.48;6.60;;;-3275.50;98.50;;;;;;5037787;28;20047;-65
2024/03/08 03:33:51;;;;;;;16.90;7.05;;;-3275.50;98.50;;;;;;5034817;28;20041;-64
2024/03/08 03:36:17;;;;;;;15.02;7.38;;;-3275.50;98.60;;;;;;5037070;28;20048;-65
2024/03/08 03:38:43;;;;;;;17.15;6.80;;;-3275.60;98.60;;;;;;5032530;28;20040;-65
2024/03/08 03:41:14;;;;;;;16.73;7.90;;;-3275.50;98.60;;;;;;5035451;28;20174;-65
2024/03/08 03:43:39;;;;;;;;;;;-3275.60;98.60;;;;;;5039986;28;20044;-67
2024/03/08 03:46:07;;;;;;;16.38;6.82;;;-3275.60;98.60;;;;;;5037509;28;19909;-63
2024/03/08 03:48:32;;;;;;;16.13;6.55;;;-3275.50;98.50;;;;;;5035847;28;20111;-64
2024/03/08 03:50:58;;;;;;;12.48;6.22;;;-3275.60;98.60;;;;;;5039774;28;20140;-63
2024/03/08 03:53:25;;;;;;;17.52;6.93;;;-3275.50;98.60;;;;;;5040657;28;20061;-63
2024/03/08 03:55:51;;;;;;;14.73;6.60;;;-3275.50;98.70;;;;;;5042163;28;20021;-64
2024/03/08 03:58:22;;;;;;;15.43;6.60;;;-3275.50;98.70;;;;;;5030033;28;20037;-65
2024/03/08 04:00:48;;;;;;;;;;;-3275.40;98.70;;;;;;5038289;28;20120;-64
2024/03/08 04:03:13;;;;;;;17.25;6.43;;;-3275.40;98.70;;;;;;5030290;28;19913;-64
2024/03/08 04:05:39;;;;;;;16.70;6.13;;;-3275.50;98.80;;;;;;5033608;28;20106;-65
2024/03/08 04:08:06;;;;;;;17.95;7.55;;;-3275.50;98.90;;;;;;5035787;28;20021;-64
2024/03/08 04:10:31;;;;;;;14.10;6.22;;;-3275.40;98.80;;;;;;5042442;28;20028;-65
2024/03/08 04:12:57;;;;;;;14.80;5.75;;;-3275.40;98.90;;;;;;5033221;28;20034;-64
2024/03/08 04:15:22;;;;;;;16.63;6.93;;;-3275.40;98.90;;;;;;5030291;28;20113;-65
2024/03/08 04:17:48;;;;;;;16.88;7.25;;;-3275.40;98.90;;;;;;5040304;28;20086;-65
2024/03/08 04:20:14;;;;;;;13.77;6.00;;;-3275.40;98.90;;;;;;5038996;28;20142;-64
2024/03/08 04:22:39;;;;;;;16.20;6.80;;;-3275.40;99.10;;;;;;5035814;28;20696;-64
2024/03/08 04:25:06;;;;;;;12.65;6.15;;;-3275.50;99.10;;;;;;5042820;28;20033;-64
2024/03/08 04:27:32;;;;;;;16.02;7.00;;;-3275.50;99.10;;;;;;5042441;28;20072;-66
2024/03/08 04:29:59;;;;;;;15.68;7.57;;;-3275.40;98.90;;;;;;5037097;28;20512;-64
2024/03/08 04:32:24;;;;;;;13.82;6.10;;;-3275.30;98.90;;;;;;5028465;28;20437;-64
2024/03/08 04:34:50;;;;;;;15.35;7.10;;;-3275.30;98.90;;;;;;5034839;28;20069;-64
2024/03/08 04:37:18;;;;;;;18.25;6.85;;;-3275.30;99.00;;;;;;5030523;28;20460;-65
2024/03/08 04:39:43;;;;;;;17.10;6.95;;;-3275.30;99.00;;;;;;5035832;28;20022;-64
2024/03/08 04:42:09;;;;;;;16.08;6.85;;;-3275.40;99.10;;;;;;5035637;28;20125;-65
2024/03/08 04:44:36;;;;;;;13.68;6.10;;;-3275.30;99.00;;;;;;5041520;28;20034;-65
2024/03/08 04:47:02;;;;;;;16.02;7.13;;;-3275.30;99.10;;;;;;5034038;28;20028;-65
2024/03/08 04:49:28;;;;;;;15.95;6.18;;;-3275.20;99.00;;;;;;5039014;28;20453;-64
2024/03/08 04:51:53;;;;;;;17.30;6.45;;;-3275.30;99.20;;;;;;5037943;28;20032;-65
2024/03/08 04:54:19;;;;;;;16.95;6.40;;;-3275.20;99.10;;;;;;5039462;28;20076;-65
2024/03/08 04:56:44;;;;;;;13.35;6.50;;;-3275.30;99.30;;;;;;5037902;28;20033;-64
2024/03/08 04:59:10;;;;;;;15.10;6.22;;;-3275.30;99.20;;;;;;5035901;28;20100;-63
2024/03/08 05:01:37;;;;;;;15.95;6.90;;;-3275.30;99.20;;;;;;5035715;28;20040;-64
2024/03/08 05:04:04;;;;;;;16.48;7.55;;;-3275.20;99.10;;;;;;5040249;28;20123;-64
2024/03/08 05:06:30;;;;;;;15.90;7.03;;;-3275.20;99.10;;;;;;5038698;28;20331;-64
2024/03/08 05:08:56;;;;;;;18.50;8.55;;;-3275.20;99.20;;;;;;5037128;28;20470;-64
2024/03/08 05:11:21;;;;;;;13.88;6.47;;;-3275.20;99.20;;;;;;5034102;28;20096;-66
2024/03/08 05:13:46;;;;;;;18.15;6.88;;;-3275.10;99.20;;;;;;5035705;28;20110;-65
2024/03/08 05:16:15;;;;;;;16.40;7.82;;;-3275.20;99.10;;;;;;5034833;28;20064;-64
2024/03/08 05:18:41;;;;;;;18.55;7.65;;;-3275.20;99.10;;;;;;5038832;28;20033;-64
2024/03/08 05:21:09;;;;;;;19.42;7.90;;;-3275.20;99.20;;;;;;5035488;28;20481;-64
2024/03/08 05:23:34;;;;;;;19.25;8.30;;;-3275.20;99.20;;;;;;5037021;28;20033;-66
2024/03/08 05:26:00;;;;;;;13.82;7.25;;;-3275.10;99.20;;;;;;5029595;28;20403;-65
2024/03/08 05:28:26;;;;;;;15.65;6.78;;;-3275.00;99.10;;;;;;5038804;28;20021;-63
2024/03/08 05:30:51;;;;;;;19.90;7.78;;;-3275.00;99.10;;;;;;5030805;28;20049;-64
2024/03/08 05:33:17;;;;;;;17.25;7.32;;;-3275.00;99.20;;;;;;5030487;28;20426;-63
2024/03/08 05:35:43;;;;;;;15.82;6.75;;;-3275.00;99.10;;;;;;5028229;28;20037;-64
2024/03/08 05:38:08;;;;;;;19.35;7.93;;;-3275.00;99.30;;;;;;5029181;28;20383;-63
2024/03/08 05:40:34;;;;;;;17.35;7.80;;;-3275.00;99.30;;;;;;5037673;28;20203;-65
2024/03/08 05:42:59;;;;;;;13.82;7.30;;;-3274.90;99.20;;;;;;5034949;28;20104;-64
2024/03/08 05:45:25;;;;;;;16.42;7.70;;;-3274.90;99.20;;;;;;5039121;28;20085;-63
2024/03/08 05:47:51;;;;;;;18.95;7.55;;;-3274.80;99.20;;;;;;5029900;28;20052;-64
2024/03/08 05:50:17;;;;;;;16.83;8.00;;;-3274.80;99.30;;;;;;5031908;28;20131;-65
2024/03/08 05:52:43;;;;;;;18.00;7.72;;;-3274.80;99.30;;;;;;5030745;28;20041;-63
2024/03/08 05:55:09;;;;;;;25.55;8.23;;;-3274.90;99.30;;;;;;5037479;28;20084;-64
2024/03/08 05:57:37;;;;;;;16.73;7.25;;;-3274.90;99.30;;;;;;5032925;28;20131;-65
2024/03/08 06:00:03;;;;;;;21.00;7.65;;;-3274.90;99.40;;;;;;5040357;28;20160;-64
2024/03/08 06:02:29;;;;;;;16.52;7.45;;;-3274.90;99.30;;;;;;5036126;28;20477;-64
2024/03/08 06:04:54;;;;;;;20.45;7.93;;;-3275.00;99.40;;;;;;5026148;28;20111;-64
2024/03/08 06:07:20;;;;;;;20.75;8.80;;;-3275.00;99.40;;;;;;5027448;28;20561;-64
2024/03/08 06:09:48;;;;;;;22.27;9.05;;;-3274.90;99.40;;;;;;5032844;28;20453;-64
2024/03/08 06:12:18;;;;;;;17.90;8.27;;;-3274.90;99.40;;;;;;5032514;28;20044;-63
2024/03/08 06:14:46;;;;;;;18.17;7.07;;;-3275.00;99.40;;;;;;5039927;28;20036;-65
2024/03/08 06:17:12;;;;;;;15.63;8.23;;;-3275.00;99.40;;;;;;5033644;28;20026;-64
2024/03/08 06:19:37;;;;;;;20.23;7.70;;;-3275.00;99.40;;;;;;5041929;28;20040;-63
2024/03/08 06:22:05;;;;;;;17.38;8.00;;;-3275.00;99.40;;;;;;5037149;28;20118;-63
2024/03/08 06:24:31;;;;;;;23.98;9.10;;;-3275.00;99.40;;;;;;5037910;28;20125;-64
2024/03/08 06:26:57;;;;;;;16.98;7.45;;;-3275.00;99.40;;;;;;5032786;28;20037;-65
2024/03/08 06:29:23;;;;;;;16.83;7.10;;;-3275.00;99.40;;;;;;5032974;28;20148;-63
2024/03/08 06:31:49;;;;;;;21.05;9.18;;;-3275.10;99.40;;;;;;5037103;28;20048;-63
2024/03/08 06:34:15;;;;;;;25.48;8.95;;;-3275.10;99.40;;;;;;5036684;28;20048;-64
2024/03/08 06:36:41;;;;;;;23.30;9.02;;;-3275.20;99.40;;;;;;5034556;28;20041;-63
2024/03/08 06:39:09;;;;;;;18.25;8.30;;;-3275.30;99.40;;;;;;5035341;28;20349;-63
2024/03/08 06:41:36;;;;;;;18.15;7.97;;;-3275.30;99.30;;;;;;5040050;28;20134;-64
2024/03/08 06:44:01;;;;;;;18.13;8.55;;;-3275.30;99.30;;;;;;5032462;28;20457;-64
2024/03/08 06:46:27;;;;;;;22.27;8.60;;;-3275.30;99.30;;;;;;5046608;28;20044;-63
2024/03/08 06:48:52;;;;;;;25.17;9.27;;;-3275.30;99.20;;;;;;5035004;28;20326;-63
2024/03/08 06:51:18;;;;;;;21.38;8.48;;;-3275.40;99.30;;;;;;5035713;28;20036;-63
2024/03/08 06:53:44;;;;;;;21.27;8.15;;;-3275.50;99.20;;;;;;5033497;28;20037;-65
2024/03/08 06:56:09;;;;;;;18.40;8.38;;;-3275.50;99.20;;;;;;5036377;28;20069;-63
2024/03/08 06:58:35;;;;;;;17.77;7.22;;;-3275.50;99.20;;;;;;5029849;28;20143;-63
2024/03/08 07:01:03;;;;;;;17.92;7.47;;;-3275.60;99.10;;;;;;5034630;28;20107;-65
2024/03/08 07:03:30;;;;;;;19.23;7.82;;;-3275.70;99.10;;;;;;5038541;28;20430;-63
2024/03/08 07:05:58;;;;;;;22.25;8.40;;;-3275.80;99.10;;;;;;5035183;28;20034;-63
2024/03/08 07:08:23;;;;;;;19.88;8.40;;;-3275.80;99.10;;;;;;5045039;28;20489;-63
2024/03/08 07:10:49;;;;;;;18.98;7.93;;;-3275.90;99.00;;;;;;5037080;28;20035;-64
2024/03/08 07:13:15;;;;;;;24.42;8.68;;;-3276.00;98.90;;;;;;5038041;28;20065;-63
2024/03/08 07:15:40;;;;;;;22.95;8.70;;;-3276.10;98.80;;;;;;5039137;28;20112;-63
2024/03/08 07:18:08;;;;;;;16.83;7.88;;;-3276.20;98.90;;;;;;5038318;28;20295;-63
2024/03/08 07:20:35;;;;;;;16.95;8.50;;;-3276.30;98.70;;;;;;5037093;28;20173;-63
2024/03/08 07:23:00;;;;;;;20.30;7.95;;;-3276.30;98.60;;;;;;5040172;28;20092;-63
2024/03/08 07:25:29;;;;;;;24.20;8.98;;;-3276.40;98.40;;;;;;5044590;28;20112;-63
2024/03/08 07:27:55;;;;;;;18.65;9.07;;;-3276.50;98.30;;;;;;5037019;28;20036;-63
2024/03/08 07:33:07;;;;;;;18.17;7.68;;;-3276.60;98.00;;;;;;5040324;28;20031;-64
2024/03/08 07:35:39;;;;;;;25.85;8.98;;;-3276.70;97.80;;;;;;5030692;28;20124;-64
2024/03/08 07:38:09;;;;;;;20.38;8.13;;;0.00;97.70;;;;;;5036996;28;20547;-63
2024/03/08 07:40:44;;;;;;;18.65;8.63;;;0.10;97.70;;;;;;5038797;28;20040;-63
2024/03/08 07:43:10;;;;;;;18.65;8.35;;;0.10;97.10;;;;;;5033768;28;20373;-64
2024/03/08 07:45:37;;;;;;;21.10;8.80;;;0.20;96.80;;;;;;5031483;28;20025;-63
2024/03/08 07:48:03;;;;;;;23.45;8.65;;;0.30;96.60;;;;;;5028654;28;20029;-63
2024/03/08 07:50:28;;;;;;;16.63;7.70;;;0.40;96.30;;;;;;5036269;28;20029;-63
2024/03/08 07:52:54;;;;;;;16.52;8.40;;;0.40;95.70;;;;;;5037111;28;20025;-63
2024/03/08 07:55:20;;;;;;;24.35;10.13;;;0.60;94.90;;;;;;5033140;28;20079;-64
2024/03/08 07:57:47;;;;;;;17.70;8.40;;;0.70;94.70;;;;;;5029179;28;20021;-63
2024/03/08 08:00:17;;;;;;;21.70;9.13;;;0.80;94.50;;;;;;5038587;28;20485;-63
2024/03/08 08:02:45;;;;;;;19.85;9.07;;;0.90;93.70;;;;;;5025606;28;20045;-63
2024/03/08 08:05:11;;;;;;;24.50;9.02;;;1.10;93.40;;;;;;5034196;28;20021;-63
2024/03/08 08:07:36;;;;;;;18.95;9.27;;;1.10;92.80;;;;;;5037350;28;20087;-63
2024/03/08 08:10:02;;;;;;;16.20;8.15;;;1.30;92.90;;;;;;5034191;28;20165;-65
2024/03/08 08:12:28;;;;;;;18.63;9.00;;;1.40;92.20;;;;;;5031645;28;20223;-65
2024/03/08 08:14:54;;;;;;;18.33;8.85;;;1.60;93.10;;;;;;5033744;28;20025;-63
2024/03/08 08:17:20;;;;;;;17.48;8.77;;;1.60;91.20;;;;;;5032417;28;20049;-64
2024/03/08 08:19:45;;;;;;;17.63;8.40;;;1.70;91.10;;;;;;5030366;28;20060;-64
2024/03/08 08:22:11;;;;;;;19.52;8.10;;;1.80;90.80;;;;;;5034237;28;20100;-64
2024/03/08 08:24:37;;;;;;;21.83;8.48;;;2.00;90.10;;;;;;5036513;28;20116;-64
2024/03/08 08:27:03;;;;;;;18.08;8.88;;;2.10;89.70;;;;;;5035498;28;20095;-63
2024/03/08 08:29:30;;;;;;;16.05;8.20;;;2.20;89.30;;;;;;5032214;28;20041;-64
2024/03/08 08:31:59;;;;;;;17.50;9.13;;;2.70;90.50;;;;;;5032968;28;20033;-65
2024/03/08 08:34:26;;;;;;;18.65;8.55;;;2.60;87.50;;;;;;5029386;28;20464;-63
2024/03/08 08:36:52;;;;;;;17.73;10.13;;;2.80;88.10;;;;;;5037068;28;20041;-64
2024/03/08 08:39:17;;;;;;;15.95;8.15;;;2.90;86.60;;;;;;5028180;28;20534;-63
2024/03/08 08:41:43;;;;;;;15.73;7.53;;;3.30;87.20;;;;;;5003587;28;1003758;-63
2024/03/08 08:44:10;;;;;;;16.70;7.63;;;3.30;86.80;;;;;;5036314;28;20690;-63
2024/03/08 08:46:37;;;;;;;21.55;10.95;;;3.60;86.30;;;;;;5035717;28;20139;-64
2024/03/08 08:49:03;;;;;;;20.33;8.43;;;3.70;85.20;;;;;;5040377;28;20025;-64
2024/03/08 08:51:28;;;;;;;17.17;8.10;;;3.80;83.30;;;;;;5032669;28;20038;-64
2024/03/08 08:53:55;;;;;;;19.55;8.57;;;4.10;84.70;;;;;;5032306;28;20060;-64
2024/03/08 08:56:22;;;;;;;19.80;9.43;;;4.20;84.10;;;;;;5038748;28;20043;-65
2024/03/08 08:58:48;;;;;;;15.57;7.53;;;4.20;81.50;;;;;;5036173;28;20542;-64
2024/03/08 09:01:14;;;;;;;14.52;8.52;;;4.60;82.40;;;;;;5042083;28;20037;-64
2024/03/08 09:03:46;;;;;;;14.63;7.10;;;4.60;81.60;;;;;;5039415;28;20048;-61
2024/03/08 09:06:12;;;;;;;16.92;8.93;;;4.70;79.80;;;;;;5034042;28;20104;-63
2024/03/08 09:08:41;;;;;;;15.88;7.45;;;4.70;79.40;;;;;;5031944;28;20032;-62
2024/03/08 09:11:07;;;;;;;15.75;7.80;;;4.80;79.40;;;;;;5032116;28;20139;-64
2024/03/08 09:13:35;;;;;;;11.93;6.15;;;5.10;79.90;;;;;;5040961;28;20029;-64
2024/03/08 09:16:02;;;;;;;15.35;8.23;;;5.10;76.30;;;;;;5037903;28;20048;-64
2024/03/08 09:18:29;;;;;;;13.18;6.78;;;5.30;77.50;;;;;;5031642;28;20028;-62
2024/03/08 09:20:54;;;;;;;15.20;5.97;;;5.20;76.20;;;;;;5039379;28;20320;-63
2024/03/08 09:23:20;;;;;;;12.52;7.13;;;5.60;78.00;;;;;;5034926;28;20040;-63
2024/03/08 09:25:46;;;;;;;14.55;6.88;;;5.40;76.70;;;;;;5032824;28;20107;-63
2024/03/08 09:28:12;;;;;;;12.38;5.90;;;5.60;75.70;;;;;;5037655;28;20025;-63
2024/03/08 09:30:38;;;;;;;17.88;7.25;;;5.60;75.20;;;;;;5030599;28;20100;-63
2024/03/08 09:33:05;;;;;;;13.60;5.90;;;6.00;76.50;;;;;;5033353;28;20411;-63
2024/03/08 09:35:31;;;;;;;12.05;6.53;;;5.90;76.00;;;;;;5031141;28;20048;-64
2024/03/08 09:37:56;;;;;;;12.13;5.97;;;6.10;75.30;;;;;;5031591;28;20077;-64
2024/03/08 09:40:24;;;;;;;11.90;6.15;;;6.30;74.20;;;;;;5035820;28;20022;-62
2024/03/08 09:42:50;;;;;;;13.88;7.40;;;6.20;71.80;;;;;;5031726;28;20044;-62
2024/03/08 09:45:16;;;;;;;13.02;6.78;;;6.10;72.90;;;;;;5035740;28;20049;-63
2024/03/08 09:47:43;;;;;;;13.02;6.18;;;6.50;72.90;;;;;;5036818;28;20134;-63
2024/03/08 09:50:12;;;;;;;14.23;6.38;;;6.20;70.40;;;;;;5030387;28;20037;-63
2024/03/08 09:52:39;;;;;;;12.48;7.00;;;6.40;71.90;;;;;;5034825;28;20422;-62
2024/03/08 09:55:09;;;;;;;10.77;6.05;;;6.20;69.90;;;;;;5029742;28;20355;-62
2024/03/08 09:57:36;;;;;;;14.18;6.13;;;6.10;70.80;;;;;;5032139;28;20026;-63
2024/03/08 10:00:08;;;;;;;11.00;7.10;;;6.20;69.20;;;;;;5033135;28;20118;-63
2024/03/08 10:02:35;;;;;;;13.10;6.47;;;6.00;71.30;;;;;;5030322;28;20040;-63
2024/03/08 10:05:03;;;;;;;12.20;6.57;;;5.90;70.60;;;;;;5033711;28;20033;-64
2024/03/08 10:07:28;;;;;;;9.98;5.28;;;6.20;70.50;;;;;;5027084;28;20021;-63
2024/03/08 10:09:54;;;;;;;13.57;6.13;;;6.40;70.20;;;;;;5028909;28;20036;-62
2024/03/08 10:12:19;;;;;;;13.82;6.50;;;6.40;69.20;;;;;;5027245;28;20069;-62
2024/03/08 10:14:46;;;;;;;11.77;5.68;;;6.80;68.90;;;;;;5034169;28;20036;-63
2024/03/08 10:17:12;;;;;;;9.63;5.13;;;6.60;69.90;;;;;;5028314;28;20037;-62
2024/03/08 10:19:38;;;;;;;10.07;5.75;;;6.60;70.30;;;;;;5037421;28;20488;-63
2024/03/08 10:22:05;;;;;;;11.50;5.80;;;6.90;68.50;;;;;;5033327;28;20096;-62
2024/03/08 10:24:30;;;;;;;11.68;6.65;;;7.20;67.40;;;;;;5032215;28;20043;-62
2024/03/08 10:27:01;;;;;;;11.23;5.97;;;7.60;68.00;;;;;;5030057;28;21078;-64
2024/03/08 10:29:28;;;;;;;10.93;5.85;;;6.90;67.60;;;;;;5033800;28;20024;-63
2024/03/08 10:31:55;;;;;;;12.45;6.80;;;7.60;69.10;;;;;;5034851;28;20170;-63
2024/03/08 10:34:23;;;;;;;8.63;5.40;;;7.10;65.00;;;;;;5031589;28;20036;-63
2024/03/08 10:36:50;;;;;;;11.27;6.10;;;6.90;64.90;;;;;;5032347;28;20051;-63
2024/03/08 10:39:23;;;;;;;10.48;5.53;;;7.00;64.10;;;;;;5028457;28;20051;-62
2024/03/08 10:42:01;;;;;;;9.90;5.68;;;7.00;63.80;;;;;;5037186;28;20095;-63
2024/03/08 10:44:30;;;;;;;11.07;5.82;;;7.40;65.60;;;;;;5034536;28;20052;-62
2024/03/08 10:47:09;;;;;;;9.93;5.28;;;7.40;62.70;;;;;;5034273;28;20435;-62
2024/03/08 10:49:49;;;;;;;10.45;5.53;;;7.20;64.30;;;;;;5044076;28;20143;-62
2024/03/08 10:52:17;;;;;;;11.13;5.43;;;7.50;63.20;;;;;;5026395;28;20111;-63
2024/03/08 10:54:44;;;;;;;13.50;5.90;;;7.30;63.00;;;;;;5032394;28;20025;-62
2024/03/08 10:57:13;;;;;;;12.13;5.20;;;7.60;62.70;;;;;;5034318;28;20049;-63
2024/03/08 10:59:39;;;;;;;10.90;5.75;;;8.10;63.00;;;;;;5037820;28;20072;-63
2024/03/08 11:02:05;;;;;;;13.32;6.47;;;7.90;61.30;;;;;;5041961;28;20040;-65
2024/03/08 11:04:33;;;;;;;9.38;5.20;;;7.60;61.20;;;;;;5035220;28;20049;-64
2024/03/08 11:07:05;;;;;;;11.20;5.63;;;7.60;61.70;;;;;;5045777;28;20505;-65
2024/03/08 11:09:38;;;;;;;10.80;5.70;;;7.70;61.50;;;;;;5041046;28;20465;-63
2024/03/08 11:12:29;;;;;;;11.07;5.78;;;7.80;62.10;;;;;;5038287;28;20088;-63
2024/03/08 11:14:55;;;;;;;12.32;5.28;;;7.70;61.60;;;;;;5036925;28;20485;-62
2024/03/08 11:17:30;;;;;;;10.95;5.70;;;8.00;62.50;;;;;;5035740;28;20056;-64
2024/03/08 11:20:01;;;;;;;12.75;6.05;;;7.80;62.30;;;;;;5034345;28;20041;-63
2024/03/08 11:22:33;;;;;;;11.23;5.93;;;7.60;61.30;;;;;;5032808;28;20386;-66
2024/03/08 11:25:02;;;;;;;12.88;5.65;;;8.00;61.90;;;;;;5037887;28;20041;-63
2024/03/08 11:27:31;;;;;;;10.80;5.35;;;8.20;61.60;;;;;;5033013;28;20076;-64
2024/03/08 11:30:22;;;;;;;11.07;5.28;;;8.40;60.80;;;;;;5038088;28;20399;-62
2024/03/08 11:32:48;;;;;;;11.38;6.43;;;8.30;60.10;;;;;;5038790;28;20470;-64
2024/03/08 11:35:22;;;;;;;11.05;5.13;;;8.30;61.80;;;;;;5031264;28;20112;-62
2024/03/08 11:37:48;;;;;;;12.15;6.60;;;8.10;60.90;;;;;;5031848;28;20037;-63
2024/03/08 11:40:15;;;;;;;9.13;4.68;;;8.10;60.30;;;;;;5029464;28;20143;-64
2024/03/08 11:42:47;;;;;;;11.23;5.53;;;8.30;59.00;;;;;;5039480;28;20187;-63
2024/03/08 11:45:13;;;;;;;11.18;5.65;;;8.60;59.00;;;;;;5030437;28;20076;-63
2024/03/08 11:47:41;;;;;;;10.20;5.38;;;8.70;57.60;;;;;;5030584;28;20024;-63
2024/03/08 11:50:10;;;;;;;11.00;5.50;;;8.70;57.20;;;;;;5033879;28;20036;-63
2024/03/08 11:52:36;;;;;;;12.57;5.82;;;8.50;58.30;;;;;;5026133;28;20048;-63
2024/03/08 11:55:05;;;;;;;13.07;6.22;;;8.70;57.70;;;;;;5038283;28;20033;-62
2024/03/08 11:57:31;;;;;;;9.77;4.97;;;8.80;57.10;;;;;;5037712;28;20116;-63
2024/03/08 11:59:58;;;;;;;11.25;5.53;;;8.80;57.10;;;;;;5041605;28;20471;-63
2024/03/08 12:02:24;;;;;;;9.75;5.22;;;9.50;56.10;;;;;;5038368;28;20088;-64
2024/03/08 12:05:00;;;;;;;10.68;5.90;;;9.00;57.00;;;;;;5031009;28;20175;-65
2024/03/08 12:07:27;;;;;;;8.40;4.80;;;9.10;56.30;;;;;;5032353;28;20033;-63
2024/03/08 12:10:18;;;;;;;12.07;5.85;;;9.50;55.90;;;;;;5043590;28;20029;-64
2024/03/08 12:12:46;;;;;;;10.07;5.15;;;9.60;56.40;;;;;;5034875;28;20053;-63
2024/03/08 12:15:12;;;;;;;10.98;5.22;;;9.60;54.90;;;;;;5041578;28;20401;-63
2024/03/08 12:17:39;;;;;;;9.98;5.43;;;9.60;55.00;;;;;;5033886;28;20031;-64
2024/03/08 12:20:18;;;;;;;9.45;5.28;;;9.50;54.20;;;;;;5032724;28;20056;-63
2024/03/08 12:22:45;;;;;;;11.55;5.38;;;9.70;55.40;;;;;;5035753;28;20056;-63
2024/03/08 12:25:12;;;;;;;10.60;5.30;;;10.00;54.90;;;;;;5033899;28;20021;-63
2024/03/08 12:27:39;;;;;;;10.48;5.55;;;9.40;54.40;;;;;;5034247;28;20107;-63